createdAt,value
2023-04-25T00:00:51.570Z,9.30
2023-04-25T00:03:20.116Z,9.17
2023-04-25T00:05:47.505Z,10.53
2023-04-25T00:08:14.964Z,9.43
2023-04-25T00:10:43.268Z,9.03
2023-04-25T00:13:10.832Z,9.27
2023-04-25T00:15:38.455Z,9.87
2023-04-25T00:18:06.860Z,9.67
2023-04-25T00:20:34.392Z,9.53
2023-04-25T00:23:01.869Z,12.88
2023-04-25T00:25:29.384Z,10.57
2023-04-25T00:27:56.941Z,9.87
2023-04-25T00:30:24.461Z,11.48
2023-04-25T00:32:52.026Z,9.83
2023-04-25T00:35:19.578Z,8.57
2023-04-25T00:37:47.121Z,7.80
2023-04-25T00:40:14.666Z,7.77
2023-04-25T00:42:43.315Z,7.93
2023-04-25T00:45:11.569Z,6.97
2023-04-25T00:47:39.114Z,7.33
2023-04-25T00:50:06.766Z,7.57
2023-04-25T00:52:35.094Z,7.03
2023-04-25T00:55:02.619Z,7.80
2023-04-25T00:57:30.166Z,7.83
2023-04-25T00:59:57.718Z,7.43
2023-04-25T01:02:25.337Z,5.70
2023-04-25T01:04:53.548Z,5.93
2023-04-25T01:07:21.095Z,5.70
2023-04-25T01:09:49.394Z,5.20
2023-04-25T01:12:16.962Z,5.10
2023-04-25T01:14:45.026Z,4.93
2023-04-25T01:17:12.556Z,4.90
2023-04-25T01:19:40.071Z,6.18
2023-04-25T01:22:07.655Z,6.33
2023-04-25T01:24:35.196Z,6.32
2023-04-25T01:27:02.722Z,5.90
2023-04-25T01:29:30.286Z,4.70
2023-04-25T01:31:57.890Z,5.03
2023-04-25T01:34:25.356Z,4.97
2023-04-25T01:36:52.921Z,5.33
2023-04-25T01:39:20.467Z,4.93
2023-04-25T01:41:48.009Z,4.67
2023-04-25T01:44:15.586Z,4.50
2023-04-25T01:46:43.109Z,5.70
2023-04-25T01:49:10.638Z,5.00
2023-04-25T01:51:39.177Z,4.27
2023-04-25T01:54:06.702Z,4.60
2023-04-25T01:56:34.235Z,5.90
2023-04-25T01:59:01.850Z,5.13
2023-04-25T02:01:29.447Z,5.13
2023-04-25T02:03:57.339Z,5.20
2023-04-25T02:06:24.478Z,5.67
2023-04-25T02:08:52.012Z,5.70
2023-04-25T02:11:20.303Z,5.73
2023-04-25T02:13:49.210Z,5.23
2023-04-25T02:16:16.650Z,5.27
2023-04-25T02:18:44.126Z,5.00
2023-04-25T02:21:12.437Z,4.63
2023-04-25T02:23:39.984Z,4.60
2023-04-25T02:26:07.510Z,4.47
2023-04-25T02:28:36.070Z,4.93
2023-04-25T02:31:03.588Z,4.80
2023-04-25T02:33:31.113Z,7.83
2023-04-25T02:35:58.669Z,6.80
2023-04-25T02:38:26.209Z,5.33
2023-04-25T02:40:54.486Z,5.13
2023-04-25T02:43:22.822Z,4.23
2023-04-25T02:45:50.351Z,4.33
2023-04-25T02:48:17.982Z,5.20
2023-04-25T02:50:45.451Z,4.70
2023-04-25T02:53:13.746Z,4.30
2023-04-25T02:55:41.300Z,4.43
2023-04-25T02:58:09.603Z,4.20
2023-04-25T03:00:37.138Z,4.70
2023-04-25T03:03:04.743Z,5.45
2023-04-25T03:05:33.043Z,4.53
2023-04-25T03:08:01.330Z,3.93
2023-04-25T03:10:28.874Z,3.80
2023-04-25T03:12:56.432Z,3.83
2023-04-25T03:15:24.729Z,4.67
2023-04-25T03:17:52.281Z,3.87
2023-04-25T03:20:20.592Z,3.70
2023-04-25T03:22:48.127Z,4.43
2023-04-25T03:25:15.660Z,4.13
2023-04-25T03:27:44.015Z,3.90
2023-04-25T03:30:11.547Z,3.87
2023-04-25T03:32:39.075Z,4.97
2023-04-25T03:35:06.729Z,3.87
2023-04-25T03:37:35.018Z,4.03
2023-04-25T03:40:03.313Z,3.87
2023-04-25T03:42:30.913Z,4.23
2023-04-25T03:44:58.433Z,4.50
2023-04-25T03:47:26.003Z,3.77
2023-04-25T03:49:53.651Z,4.07
2023-04-25T03:52:21.193Z,3.87
2023-04-25T03:54:48.719Z,4.50
2023-04-25T03:57:16.315Z,4.87
2023-04-25T03:59:43.854Z,4.60
2023-04-25T04:02:12.292Z,4.80
2023-04-25T04:04:40.958Z,5.20
2023-04-25T04:07:08.090Z,4.77
2023-04-25T04:09:35.934Z,5.10
2023-04-25T04:12:04.975Z,4.33
2023-04-25T04:14:32.522Z,4.57
2023-04-25T04:17:00.045Z,4.70
2023-04-25T04:19:28.445Z,4.73
2023-04-25T04:21:56.709Z,4.93
2023-04-25T04:24:25.002Z,5.20
2023-04-25T04:26:52.821Z,5.30
2023-04-25T04:29:20.367Z,5.27
2023-04-25T04:31:47.961Z,5.70
2023-04-25T04:34:18.472Z,5.50
2023-04-25T04:36:46.208Z,5.23
2023-04-25T04:39:13.807Z,5.07
2023-04-25T04:41:42.144Z,5.43
2023-04-25T04:44:09.662Z,5.30
2023-04-25T04:46:37.980Z,5.30
2023-04-25T04:49:08.049Z,5.53
2023-04-25T04:51:36.614Z,5.47
2023-04-25T04:54:04.172Z,5.40
2023-04-25T04:56:35.142Z,5.73
2023-04-25T04:59:02.667Z,7.28
2023-04-25T05:01:32.735Z,5.53
2023-04-25T05:04:00.469Z,6.17
2023-04-25T05:06:27.856Z,5.77
2023-04-25T05:08:55.416Z,5.60
2023-04-25T05:11:23.134Z,6.10
2023-04-25T05:13:51.655Z,6.40
2023-04-25T05:16:19.029Z,5.93
2023-04-25T05:18:46.544Z,5.70
2023-04-25T05:21:14.069Z,8.85
2023-04-25T05:23:41.605Z,7.23
2023-04-25T05:26:09.177Z,7.23
2023-04-25T05:28:36.706Z,7.67
2023-04-25T05:31:04.257Z,6.97
2023-04-25T05:33:31.813Z,6.50
2023-04-25T05:35:59.406Z,6.00
2023-04-25T05:38:26.937Z,5.87
2023-04-25T05:40:54.512Z,7.68
2023-04-25T05:43:22.055Z,6.63
2023-04-25T05:45:49.623Z,6.27
2023-04-25T05:48:18.289Z,6.40
2023-04-25T05:50:45.826Z,6.77
2023-04-25T05:53:14.129Z,6.17
2023-04-25T05:55:41.731Z,6.50
2023-04-25T05:58:09.353Z,6.80
2023-04-25T06:00:36.874Z,9.70
2023-04-25T06:03:05.309Z,8.53
2023-04-25T06:05:32.804Z,8.43
2023-04-25T06:08:00.278Z,7.73
2023-04-25T06:10:28.579Z,7.93
2023-04-25T06:12:56.145Z,7.93
2023-04-25T06:15:28.495Z,7.10
2023-04-25T06:17:51.992Z,7.50
2023-04-25T06:20:19.546Z,6.27
2023-04-25T06:22:47.102Z,5.47
2023-04-25T06:25:14.618Z,6.33
2023-04-25T06:27:43.249Z,5.63
2023-04-25T06:30:10.913Z,6.87
2023-04-25T06:32:38.462Z,5.77
2023-04-25T06:35:06.880Z,6.00
2023-04-25T06:37:34.430Z,5.40
2023-04-25T06:40:01.953Z,5.30
2023-04-25T06:42:29.523Z,5.37
2023-04-25T06:44:57.050Z,5.50
2023-04-25T06:47:24.645Z,5.23
2023-04-25T06:49:52.160Z,5.50
2023-04-25T06:52:20.443Z,5.33
2023-04-25T06:54:48.001Z,4.90
2023-04-25T06:57:16.340Z,5.07
2023-04-25T06:59:43.885Z,5.47
2023-04-25T07:02:11.552Z,5.20
2023-04-25T07:04:39.313Z,6.07
2023-04-25T07:07:06.568Z,7.03
2023-04-25T07:09:34.106Z,6.60
2023-04-25T07:12:01.672Z,5.83
2023-04-25T07:14:29.212Z,5.93
2023-04-25T07:16:59.345Z,5.40
2023-04-25T07:19:27.539Z,5.70
2023-04-25T07:21:55.083Z,6.37
2023-04-25T07:24:22.605Z,5.80
2023-04-25T07:26:50.951Z,5.63
2023-04-25T07:29:18.502Z,6.23
2023-04-25T07:31:46.125Z,5.73
2023-04-25T07:34:13.646Z,5.33
2023-04-25T07:36:41.194Z,6.77
2023-04-25T07:39:08.735Z,5.97
2023-04-25T07:41:36.309Z,6.37
2023-04-25T07:44:03.844Z,6.33
2023-04-25T07:46:31.502Z,7.28
2023-04-25T07:48:58.941Z,6.13
2023-04-25T07:51:26.491Z,6.20
2023-04-25T07:53:54.022Z,5.63
2023-04-25T07:56:22.400Z,5.87
2023-04-25T07:58:50.083Z,5.70
2023-04-25T08:01:17.476Z,5.53
2023-04-25T08:03:45.318Z,5.93
2023-04-25T08:06:12.707Z,5.43
2023-04-25T08:08:40.107Z,6.93
2023-04-25T08:11:07.699Z,5.27
2023-04-25T08:13:35.268Z,5.13
2023-04-25T08:16:02.839Z,5.47
2023-04-25T08:18:31.132Z,5.40
2023-04-25T08:20:58.672Z,5.60
2023-04-25T08:23:26.210Z,6.20
2023-04-25T08:25:53.783Z,6.03
2023-04-25T08:28:21.326Z,6.10
2023-04-25T08:30:48.878Z,6.50
2023-04-25T08:33:16.539Z,5.63
2023-04-25T08:35:44.004Z,5.40
2023-04-25T08:38:11.533Z,6.30
2023-04-25T08:40:39.899Z,5.60
2023-04-25T08:43:10.524Z,6.40
2023-04-25T08:45:38.041Z,5.37
2023-04-25T08:48:05.675Z,5.67
2023-04-25T08:50:33.148Z,5.07
2023-04-25T08:53:00.691Z,5.87
2023-04-25T08:55:28.260Z,5.87
2023-04-25T08:57:55.854Z,5.77
2023-04-25T09:00:23.390Z,4.43
2023-04-25T09:02:51.174Z,4.60
2023-04-25T09:05:20.880Z,4.90
2023-04-25T09:07:46.411Z,4.77
2023-04-25T09:10:13.643Z,4.83
2023-04-25T09:12:41.175Z,4.27
2023-04-25T09:15:08.734Z,4.67
2023-04-25T09:17:37.094Z,4.83
2023-04-25T09:20:07.787Z,4.90
2023-04-25T09:22:35.294Z,4.17
2023-04-25T09:25:12.024Z,4.07
2023-04-25T09:27:39.539Z,4.93
2023-04-25T09:30:07.194Z,4.17
2023-04-25T09:32:34.828Z,3.80
2023-04-25T09:35:02.295Z,3.80
2023-04-25T09:37:29.881Z,3.63
2023-04-25T09:39:58.147Z,3.90
2023-04-25T09:42:25.699Z,3.63
2023-04-25T09:44:53.254Z,3.40
2023-04-25T09:47:20.832Z,3.60
2023-04-25T09:49:48.348Z,3.07
2023-04-25T09:52:16.644Z,3.17
2023-04-25T09:54:44.203Z,3.33
2023-04-25T09:57:17.344Z,3.20
2023-04-25T09:59:44.864Z,3.70
2023-04-25T10:02:12.542Z,4.20
2023-04-25T10:04:40.029Z,3.30
2023-04-25T10:07:07.555Z,3.60
2023-04-25T10:09:35.140Z,3.93
2023-04-25T10:12:02.758Z,3.47
2023-04-25T10:14:30.289Z,4.03
2023-04-25T10:17:01.334Z,3.57
2023-04-25T10:19:29.653Z,3.23
2023-04-25T10:21:59.866Z,3.50
2023-04-25T10:24:27.419Z,3.90
2023-04-25T10:26:54.946Z,3.20
2023-04-25T10:29:23.265Z,3.17
2023-04-25T10:31:50.884Z,3.17
2023-04-25T10:34:18.385Z,3.23
2023-04-25T10:36:45.901Z,2.90
2023-04-25T10:39:14.222Z,3.53
2023-04-25T10:41:47.478Z,3.10
2023-04-25T10:44:15.842Z,2.97
2023-04-25T10:46:44.162Z,3.20
2023-04-25T10:49:13.683Z,3.10
2023-04-25T10:54:06.806Z,3.23
2023-04-25T10:56:37.758Z,3.03
2023-04-25T10:59:14.583Z,3.20
2023-04-25T11:01:42.238Z,3.07
2023-04-25T11:04:31.048Z,3.30
2023-04-25T11:09:35.257Z,3.40
2023-04-25T11:12:02.796Z,3.20
2023-04-25T11:14:30.330Z,3.43
2023-04-25T11:17:00.160Z,3.60
2023-04-25T11:19:25.438Z,3.77
2023-04-25T11:21:52.972Z,3.27
2023-04-25T11:24:20.528Z,3.67
2023-04-25T11:26:51.430Z,3.83
2023-04-25T11:29:18.994Z,4.85
2023-04-25T11:31:46.608Z,4.10
2023-04-25T11:34:14.095Z,4.35
2023-04-25T11:36:41.638Z,5.50
2023-04-25T11:39:09.193Z,3.83
2023-04-25T11:41:36.737Z,3.80
2023-04-25T11:44:04.270Z,3.37
2023-04-25T11:46:32.678Z,2.80
2023-04-25T11:49:00.164Z,3.47
2023-04-25T11:51:27.710Z,2.97
2023-04-25T11:53:55.291Z,3.40
2023-04-25T11:56:22.813Z,3.00
2023-04-25T11:59:02.164Z,2.83
2023-04-25T12:01:35.130Z,3.20
2023-04-25T12:04:00.062Z,2.83
2023-04-25T12:06:30.802Z,3.03
2023-04-25T12:09:04.180Z,3.40
2023-04-25T12:11:31.708Z,2.90
2023-04-25T12:13:59.320Z,3.30
2023-04-25T12:16:26.901Z,3.40
2023-04-25T12:18:54.389Z,3.60
2023-04-25T12:21:22.724Z,2.77
2023-04-25T12:23:50.238Z,2.93
2023-04-25T12:26:17.774Z,3.30
2023-04-25T12:28:45.358Z,3.33
2023-04-25T12:31:12.939Z,3.00
2023-04-25T12:33:41.181Z,2.60
2023-04-25T12:36:11.403Z,2.50
2023-04-25T12:38:41.725Z,2.57
2023-04-25T12:41:09.204Z,2.13
2023-04-25T12:43:36.802Z,2.87
2023-04-25T12:46:04.345Z,1.90
2023-04-25T12:48:31.852Z,2.47
2023-04-25T12:50:59.446Z,2.57
2023-04-25T12:53:26.990Z,2.63
2023-04-25T12:58:22.150Z,2.87
2023-04-25T13:00:49.672Z,2.30
2023-04-25T13:03:17.289Z,2.90
2023-04-25T13:05:44.801Z,2.73
2023-04-25T13:08:12.359Z,2.70
2023-04-25T13:10:39.873Z,2.60
2023-04-25T13:13:08.211Z,2.60
2023-04-25T13:15:35.744Z,2.53
2023-04-25T13:18:03.388Z,2.33
2023-04-25T13:20:30.953Z,2.57
2023-04-25T13:22:59.649Z,2.20
2023-04-25T13:25:34.516Z,2.47
2023-04-25T13:28:02.366Z,2.40
2023-04-25T13:30:38.610Z,2.60
2023-04-25T13:33:12.804Z,2.60
2023-04-25T13:35:41.925Z,2.13
2023-04-25T13:38:13.483Z,2.07
2023-04-25T13:40:42.573Z,2.23
2023-04-25T13:43:10.029Z,2.23
2023-04-25T13:45:38.954Z,1.90
2023-04-25T13:48:08.041Z,2.20
2023-04-25T13:50:36.597Z,2.33
2023-04-25T13:53:07.213Z,2.10
2023-04-25T13:55:35.181Z,2.50
2023-04-25T13:58:03.161Z,2.17
2023-04-25T14:00:32.147Z,1.90
2023-04-25T14:03:03.081Z,2.13
2023-04-25T14:05:41.411Z,2.23
2023-04-25T14:08:13.059Z,2.03
2023-04-25T14:10:45.557Z,1.93
2023-04-25T14:13:14.124Z,2.17
2023-04-25T14:15:46.654Z,2.03
2023-04-25T14:18:23.396Z,1.97
2023-04-25T14:20:52.893Z,2.17
2023-04-25T14:23:20.668Z,2.03
2023-04-25T14:25:51.804Z,2.37
2023-04-25T14:28:22.450Z,1.90
2023-04-25T14:30:50.219Z,2.33
2023-04-25T14:33:17.977Z,2.00
2023-04-25T14:35:48.708Z,1.67
2023-04-25T14:38:16.472Z,2.17
2023-04-25T14:40:44.335Z,1.90
2023-04-25T14:43:12.831Z,2.60
2023-04-25T14:45:40.586Z,2.30
2023-04-25T14:48:08.567Z,2.00
2023-04-25T14:50:37.273Z,2.60
2023-04-25T14:53:06.310Z,2.23
2023-04-25T14:55:34.162Z,1.90
2023-04-25T14:58:02.343Z,1.77
2023-04-25T15:00:34.154Z,2.58
2023-04-25T15:03:01.829Z,2.80
2023-04-25T15:05:30.136Z,2.60
2023-04-25T15:07:58.729Z,1.87
2023-04-25T15:10:27.623Z,2.50
2023-04-25T15:13:00.196Z,2.03
2023-04-25T15:15:30.464Z,2.00
2023-04-25T15:17:59.476Z,1.97
2023-04-25T15:20:27.345Z,2.03
2023-04-25T15:23:05.151Z,1.83
2023-04-25T15:25:37.030Z,2.50
2023-04-25T15:28:08.757Z,2.37
2023-04-25T15:30:40.921Z,2.60
2023-04-25T15:33:11.689Z,2.40
2023-04-25T15:35:40.304Z,2.27
2023-04-25T15:38:10.944Z,2.47
2023-04-25T15:40:38.315Z,2.30
2023-04-25T15:43:06.077Z,2.63
2023-04-25T15:45:37.730Z,2.50
2023-04-25T15:48:10.411Z,2.37
2023-04-25T15:50:40.982Z,2.13
2023-04-25T15:53:08.713Z,2.30
2023-04-25T15:55:36.584Z,2.53
2023-04-25T15:58:06.711Z,2.03
2023-04-25T16:00:37.235Z,2.30
2023-04-25T16:03:08.299Z,2.57
2023-04-25T16:05:37.275Z,2.57
2023-04-25T16:08:07.539Z,2.70
2023-04-25T16:10:41.939Z,7.00
2023-04-25T16:13:11.124Z,6.10
2023-04-25T16:15:39.709Z,4.07
2023-04-25T16:18:07.606Z,3.40
2023-04-25T16:20:35.926Z,4.57
2023-04-25T16:23:03.729Z,4.13
2023-04-25T16:25:31.593Z,4.10
2023-04-25T16:28:00.590Z,8.20
2023-04-25T16:30:29.292Z,2.57
2023-04-25T16:33:06.937Z,2.47
2023-04-25T16:35:36.159Z,2.55
2023-04-25T16:38:05.581Z,2.17
2023-04-25T16:40:34.467Z,2.33
2023-04-25T16:43:02.640Z,2.10
2023-04-25T16:45:32.386Z,2.20
2023-04-25T16:48:01.367Z,2.53
2023-04-25T16:50:29.334Z,3.40
2023-04-25T16:52:58.975Z,2.20
2023-04-25T16:55:27.863Z,2.33
2023-04-25T16:57:55.867Z,2.57
2023-04-25T17:00:27.533Z,2.10
2023-04-25T17:02:58.147Z,1.83
2023-04-25T17:05:29.204Z,2.40
2023-04-25T17:07:56.224Z,2.40
2023-04-25T17:10:25.645Z,2.67
2023-04-25T17:12:53.767Z,2.43
2023-04-25T17:15:21.998Z,2.58
2023-04-25T17:17:54.641Z,2.60
2023-04-25T17:20:25.307Z,2.80
2023-04-25T17:22:57.481Z,2.63
2023-04-25T17:25:28.327Z,1.90
2023-04-25T17:27:57.109Z,2.33
2023-04-25T17:30:25.797Z,2.47
2023-04-25T17:33:03.156Z,3.47
2023-04-25T17:35:33.311Z,2.63
2023-04-25T17:38:01.978Z,2.60
2023-04-25T17:40:30.683Z,2.27
2023-04-25T17:43:01.103Z,2.30
2023-04-25T17:45:33.875Z,2.67
2023-04-25T17:48:05.489Z,2.70
2023-04-25T17:50:34.129Z,2.33
2023-04-25T17:53:06.903Z,2.37
2023-04-25T17:55:35.704Z,2.10
2023-04-25T17:58:07.519Z,2.83
2023-04-25T18:00:35.518Z,2.60
2023-04-25T18:03:04.440Z,2.42
2023-04-25T18:05:34.708Z,2.33
2023-04-25T18:08:03.581Z,2.67
2023-04-25T18:10:32.465Z,2.50
2023-04-25T18:12:59.326Z,2.20
2023-04-25T18:15:27.197Z,3.10
2023-04-25T18:18:05.775Z,10.13
2023-04-25T18:20:35.018Z,21.50
2023-04-25T18:23:08.222Z,4.30
2023-04-25T18:25:37.626Z,5.87
2023-04-25T18:28:08.867Z,4.43
2023-04-25T18:30:36.738Z,3.63
2023-04-25T18:33:11.138Z,2.43
2023-04-25T18:35:55.342Z,2.20
2023-04-25T18:38:31.780Z,2.37
2023-04-25T18:40:59.228Z,2.70
2023-04-25T18:43:15.952Z,2.10
2023-04-25T18:45:43.846Z,2.53
2023-04-25T18:48:12.415Z,2.20
2023-04-25T18:50:43.458Z,2.13
2023-04-25T18:53:15.806Z,2.00
2023-04-25T18:55:43.777Z,1.90
2023-04-25T18:58:15.576Z,2.37
2023-04-25T19:00:51.289Z,2.07
2023-04-25T19:03:23.485Z,3.10
2023-04-25T19:05:51.400Z,4.17
2023-04-25T19:08:25.392Z,3.10
2023-04-25T19:10:55.336Z,3.73
2023-04-25T19:13:23.055Z,4.10
2023-04-25T19:15:58.938Z,3.23
2023-04-25T19:18:28.722Z,3.03
2023-04-25T19:20:56.445Z,2.73
2023-04-25T19:23:24.035Z,2.70
2023-04-25T19:25:52.325Z,2.77
2023-04-25T19:28:20.622Z,2.70
2023-04-25T19:30:48.211Z,2.80
2023-04-25T19:33:15.808Z,2.87
2023-04-25T19:35:44.008Z,2.40
2023-04-25T19:38:11.590Z,2.63
2023-04-25T19:40:39.107Z,3.27
2023-04-25T19:43:07.399Z,3.20
2023-04-25T19:45:35.786Z,2.60
2023-04-25T19:48:03.290Z,2.67
2023-04-25T19:50:30.798Z,2.57
2023-04-25T19:52:59.141Z,2.60
2023-04-25T19:55:26.657Z,2.50
2023-04-25T19:57:54.182Z,2.87
2023-04-25T20:00:22.546Z,2.53
2023-04-25T20:02:50.900Z,2.43
2023-04-25T20:05:18.368Z,2.83
2023-04-25T20:07:45.937Z,2.37
2023-04-25T20:10:13.463Z,3.75
2023-04-25T20:12:41.010Z,3.20
2023-04-25T20:15:11.818Z,4.30
2023-04-25T20:17:39.931Z,4.07
2023-04-25T20:20:07.574Z,5.53
2023-04-25T20:22:38.114Z,4.10
2023-04-25T20:25:05.623Z,3.03
2023-04-25T20:27:33.915Z,4.37
2023-04-25T20:30:02.264Z,3.73
2023-04-25T20:32:29.839Z,4.60
2023-04-25T20:34:57.438Z,4.40
2023-04-25T20:37:25.759Z,5.00
2023-04-25T20:39:53.287Z,4.50
2023-04-25T20:42:20.816Z,3.83
2023-04-25T20:44:48.697Z,3.60
2023-04-25T20:47:16.947Z,3.80
2023-04-25T20:49:44.515Z,3.30
2023-04-25T20:52:12.806Z,3.17
2023-04-25T20:54:40.353Z,3.83
2023-04-25T20:57:07.894Z,3.57
2023-04-25T20:59:36.359Z,4.17
2023-04-25T21:02:04.704Z,4.30
2023-04-25T21:04:32.317Z,5.00
2023-04-25T21:06:59.861Z,4.80
2023-04-25T21:09:28.197Z,5.60
2023-04-25T21:11:55.754Z,6.23
2023-04-25T21:14:23.307Z,5.97
2023-04-25T21:16:50.852Z,4.53
2023-04-25T21:19:19.146Z,4.77
2023-04-25T21:21:46.774Z,5.18
2023-04-25T21:24:14.314Z,3.80
2023-04-25T21:26:41.854Z,3.70
2023-04-25T21:29:09.499Z,3.40
2023-04-25T21:31:37.164Z,3.53
2023-04-25T21:34:04.619Z,3.90
2023-04-25T21:36:32.211Z,4.72
2023-04-25T21:39:00.523Z,4.00
2023-04-25T21:41:28.071Z,4.43
2023-04-25T21:43:56.424Z,4.37
2023-04-25T21:46:23.976Z,4.10
2023-04-25T21:48:51.863Z,4.83
2023-04-25T21:51:19.801Z,4.20
2023-04-25T21:53:47.341Z,4.00
2023-04-25T21:56:14.871Z,4.23
2023-04-25T21:58:42.431Z,4.90
2023-04-25T22:01:10.006Z,6.37
2023-04-25T22:03:37.631Z,5.67
2023-04-25T22:06:05.070Z,5.90
2023-04-25T22:08:33.365Z,6.57
2023-04-25T22:11:02.700Z,7.07
2023-04-25T22:13:28.488Z,7.37
2023-04-25T22:15:56.800Z,5.03
2023-04-25T22:18:24.309Z,4.33
2023-04-25T22:20:52.923Z,5.23
2023-04-25T22:23:20.459Z,4.97
2023-04-25T22:25:48.040Z,5.53
2023-04-25T22:28:15.608Z,4.67
2023-04-25T22:30:43.154Z,4.60
2023-04-25T22:33:10.712Z,6.20
2023-04-25T22:35:39.042Z,5.27
2023-04-25T22:38:06.577Z,4.60
2023-04-25T22:40:34.102Z,3.50
2023-04-25T22:43:01.680Z,4.37
2023-04-25T22:45:29.296Z,3.97
2023-04-25T22:47:57.565Z,3.87
2023-04-25T22:50:25.062Z,3.90
2023-04-25T22:52:52.611Z,3.83
2023-04-25T22:55:20.154Z,4.63
2023-04-25T22:57:48.791Z,4.30
2023-04-25T23:00:16.558Z,4.70
2023-04-25T23:02:43.920Z,4.30
2023-04-25T23:05:12.196Z,4.10
2023-04-25T23:07:39.795Z,4.50
2023-04-25T23:10:10.184Z,3.97
2023-04-25T23:12:37.789Z,4.40
2023-04-25T23:15:06.135Z,4.57
2023-04-25T23:17:33.682Z,5.30
2023-04-25T23:20:02.023Z,5.80
2023-04-25T23:22:29.590Z,4.80
2023-04-25T23:24:57.093Z,4.27
2023-04-25T23:27:24.692Z,4.53
2023-04-25T23:29:52.222Z,4.37
2023-04-25T23:32:20.546Z,4.47
2023-04-25T23:34:48.844Z,4.97
2023-04-25T23:37:16.402Z,4.13
2023-04-25T23:39:49.920Z,4.67
2023-04-25T23:42:20.434Z,4.50
2023-04-25T23:44:47.946Z,4.57
2023-04-25T23:47:15.467Z,4.77
2023-04-25T23:49:43.041Z,5.00
2023-04-25T23:52:11.345Z,4.63
2023-04-25T23:54:38.871Z,4.13
2023-04-25T23:57:08.221Z,4.00
2023-04-25T23:59:35.757Z,4.07
